Time;durP1;ratioP1;P1;durP2;ratioP2;P2;SDS_P1;SDS_P2;PMS_P1;PMS_P2;Temp;Humidity;BMP_temperature;BMP_pressure;BME280_temperature;BME280_humidity;BME280_pressure;Samples;Min_cycle;Max_cycle;Signal;HPM_P1;HPM_P2
2023/10/11 00:00:33;;;;;;;25.60;17.87;;;14.30;99.90;;;;;;6193230;23;20447;-90
2023/10/11 00:03:15;;;;;;;24.93;18.23;;;14.40;99.90;;;;;;6195631;23;20411;-91
2023/10/11 00:05:49;;;;;;;25.63;18.90;;;14.30;99.90;;;;;;6195878;23;20757;-91
2023/10/11 00:13:57;;;;;;;23.97;17.33;;;;;;;;;;6209371;23;20407;-91
2023/10/11 00:16:35;;;;;;;;;;;;;;;;;;;;;
2023/10/11 00:19:09;;;;;;;26.20;19.57;;;;;;;;;;6205132;23;20434;-91
2023/10/11 00:21:49;;;;;;;25.07;16.83;;;14.40;99.90;;;;;;6204065;23;20390;-94
2023/10/11 00:24:19;;;;;;;22.10;18.13;;;;;;;;;;6202721;23;20399;-91
2023/10/11 00:27:10;;;;;;;24.17;16.50;;;14.40;99.90;;;;;;6212528;23;20410;-91
2023/10/11 00:29:40;;;;;;;23.67;18.03;;;;;;;;;;6212306;23;20415;-92
2023/10/11 00:32:09;;;;;;;20.47;16.77;;;;;;;;;;6213356;23;20415;-94
2023/10/11 00:37:20;;;;;;;19.23;17.10;;;14.30;99.90;;;;;;6163189;23;20453;-93
2023/10/11 00:39:47;;;;;;;20.63;17.23;;;14.20;99.90;;;;;;6188814;23;20458;-91
2023/10/11 00:42:16;;;;;;;24.93;17.50;;;14.30;99.90;;;;;;6207654;23;20415;-90
2023/10/11 00:44:47;;;;;;;25.90;18.47;;;14.30;99.90;;;;;;6201908;23;20438;-90
2023/10/11 00:47:16;;;;;;;29.17;18.70;;;;;;;;;;6202644;23;20391;-90
2023/10/11 00:49:45;;;;;;;23.20;17.47;;;14.10;99.90;;;;;;6202932;23;20423;-90
2023/10/11 00:52:14;;;;;;;31.17;19.90;;;;;;;;;;6201614;23;20410;-90
2023/10/11 00:54:43;;;;;;;26.20;18.70;;;;;;;;;;6198646;23;20407;-91
2023/10/11 00:57:15;;;;;;;24.30;18.70;;;;;;;;;;6207410;23;20434;-89
2023/10/11 00:59:51;;;;;;;26.60;17.53;;;14.30;99.90;;;;;;6215141;23;20434;-93
2023/10/11 01:02:21;;;;;;;22.70;18.20;;;;;;;;;;6177102;23;20471;-92
2023/10/11 01:04:50;;;;;;;23.93;18.90;;;;;;;;;;6155608;23;20381;-90
2023/10/11 01:07:23;;;;;;;20.90;16.97;;;;;;;;;;6141735;23;20413;-90
2023/10/11 01:09:51;;;;;;;21.53;16.07;;;;;;;;;;6110608;23;20764;-89
2023/10/11 01:12:22;;;;;;;25.63;16.30;;;;;;;;;;6120057;23;20426;-91
2023/10/11 01:15:00;;;;;;;21.50;16.13;;;14.20;99.90;;;;;;6108824;23;20399;-91
2023/10/11 01:17:31;;;;;;;23.60;16.37;;;;;;;;;;6110066;23;20421;-90
2023/10/11 01:20:00;;;;;;;22.63;16.60;;;;;;;;;;6110002;23;20450;-90
2023/10/11 01:22:32;;;;;;;21.97;15.40;;;14.20;99.90;;;;;;6108300;23;20414;-90
2023/10/11 01:25:01;;;;;;;23.17;16.80;;;14.20;99.90;;;;;;6109163;23;20892;-90
2023/10/11 01:27:32;;;;;;;24.00;15.80;;;;;;;;;;6109551;23;20509;-90
2023/10/11 01:29:59;;;;;;;20.67;14.80;;;;;;;;;;6110037;23;20434;-89
2023/10/11 01:32:49;;;;;;;17.20;13.40;;;14.30;99.90;;;;;;6112966;23;20409;-91
2023/10/11 01:35:23;;;;;;;21.33;14.50;;;14.40;99.90;;;;;;6110605;23;20476;-91
2023/10/11 01:37:58;;;;;;;18.40;14.40;;;14.00;99.90;;;;;;6108890;23;20429;-91
2023/10/11 01:40:33;;;;;;;18.43;12.40;;;14.40;99.90;;;;;;6110966;23;20465;-91
2023/10/11 01:43:12;;;;;;;22.23;13.17;;;14.40;99.90;;;;;;6114831;23;20480;-91
2023/10/11 01:45:44;;;;;;;18.40;13.90;;;;;;;;;;6114058;23;20382;-90
2023/10/11 01:48:15;;;;;;;18.50;12.77;;;15.00;99.90;;;;;;6110446;23;20433;-90
2023/10/11 01:50:47;;;;;;;13.90;12.40;;;14.40;99.90;;;;;;6107575;23;20429;-89
2023/10/11 01:53:18;;;;;;;17.43;11.90;;;13.90;99.90;;;;;;6106806;23;20379;-90
2023/10/11 01:55:47;;;;;;;14.73;13.03;;;;;;;;;;6106242;23;20449;-90
2023/10/11 01:58:15;;;;;;;20.70;13.30;;;;;;;;;;6107233;23;20445;-91
2023/10/11 02:00:44;;;;;;;21.80;13.43;;;;;;;;;;6112326;23;20450;-90
2023/10/11 02:03:15;;;;;;;18.73;13.67;;;;;;;;;;6111234;23;20517;-90
2023/10/11 02:05:45;;;;;;;19.13;12.67;;;;;;;;;;6111606;23;20430;-90
2023/10/11 02:08:16;;;;;;;20.60;12.50;;;;;;;;;;6116985;23;20478;-90
2023/10/11 02:11:02;;;;;;;17.17;11.53;;;14.50;99.90;;;;;;6115505;23;20430;-89
2023/10/11 02:13:33;;;;;;;12.93;11.00;;;;;;;;;;6112625;23;20456;-90
2023/10/11 02:16:10;;;;;;;21.27;14.37;;;14.50;99.90;;;;;;6107064;23;20402;-90
2023/10/11 02:18:40;;;;;;;13.00;10.27;;;;;;;;;;6111815;23;20397;-90
2023/10/11 02:21:07;;;;;;;14.30;11.30;;;;;;;;;;6109658;23;20437;-90
2023/10/11 02:23:39;;;;;;;17.37;11.47;;;;;;;;;;6110884;23;20846;-90
2023/10/11 02:26:12;;;;;;;13.63;12.13;;;14.40;99.90;;;;;;6108109;23;20438;-90
2023/10/11 02:28:40;;;;;;;17.80;11.70;;;;;;;;;;6106963;23;20493;-90
2023/10/11 02:31:12;;;;;;;16.17;10.23;;;;;;;;;;6116893;23;20421;-90
2023/10/11 02:33:40;;;;;;;20.77;11.90;;;;;;;;;;6124890;23;20398;-91
2023/10/11 02:36:09;;;;;;;12.37;10.80;;;;;;;;;;6125153;23;20398;-90
2023/10/11 02:38:41;;;;;;;16.40;11.10;;;;;;;;;;6109226;23;20398;-89
2023/10/11 02:41:10;;;;;;;14.27;10.63;;;14.20;99.90;;;;;;6107958;23;20429;-89
2023/10/11 02:43:49;;;;;;;17.50;10.43;;;;;;;;;;6107652;23;20438;-88
2023/10/11 02:46:16;;;;;;;20.00;12.10;;;14.20;99.90;;;;;;6119979;23;20776;-90
2023/10/11 02:49:04;;;;;;;12.07;9.80;;;14.10;99.90;;;;;;6107942;23;20440;-90
2023/10/11 02:51:57;;;;;;;12.40;10.10;;;14.10;99.90;;;;;;6109021;23;20490;-91
2023/10/11 02:54:34;;;;;;;12.53;9.93;;;14.10;99.90;;;;;;6110678;23;20426;-90
2023/10/11 02:57:19;;;;;;;12.73;9.70;;;14.10;99.90;;;;;;6109393;23;20421;-91
2023/10/11 02:59:50;;;;;;;14.70;10.47;;;;;;;;;;6109260;23;20449;-91
2023/10/11 03:02:31;;;;;;;;;;;;;;;;;;;;;
2023/10/11 03:07:46;;;;;;;14.30;10.47;;;14.00;99.90;;;;;;6190267;23;20485;-92
2023/10/11 03:13:03;;;;;;;17.40;9.90;;;13.90;99.90;;;;;;6194170;23;20704;-89
2023/10/11 03:15:31;;;;;;;14.90;9.63;;;;;;;;;;6195765;23;20403;-90
2023/10/11 03:18:06;;;;;;;14.00;8.77;;;;;;;;;;6197650;23;20411;-90
2023/10/11 03:20:39;;;;;;;13.07;10.00;;;;;;;;;;6206492;23;20446;-91
2023/10/11 03:23:10;;;;;;;15.37;9.80;;;;;;;;;;6213880;23;20383;-92
2023/10/11 03:25:44;;;;;;;12.97;9.03;;;;;;;;;;6214072;23;20387;-91
2023/10/11 03:28:14;;;;;;;12.73;8.30;;;14.10;99.90;;;;;;6205066;23;20422;-92
2023/10/11 03:30:42;;;;;;;9.17;7.60;;;;;;;;;;6202207;23;20408;-91
2023/10/11 03:33:10;;;;;;;14.33;9.00;;;13.60;99.90;;;;;;6202024;23;20434;-92
2023/10/11 03:35:39;;;;;;;13.60;9.10;;;;;;;;;;6201962;23;20414;-91
2023/10/11 03:38:17;;;;;;;14.50;9.10;;;;;;;;;;6197135;23;20414;-90
2023/10/11 03:41:44;;;;;;;13.83;9.20;;;14.10;99.90;;;;;;6191153;23;20482;-91
2023/10/11 03:44:54;;;;;;;14.73;9.60;;;14.10;99.90;;;;;;6163131;23;20408;-90
2023/10/11 03:47:35;;;;;;;10.70;8.63;;;14.10;99.90;;;;;;6165300;23;20439;-91
2023/10/11 03:50:33;;;;;;;12.77;8.30;;;14.10;99.90;;;;;;6164940;23;20408;-89
2023/10/11 03:53:30;;;;;;;14.07;8.20;;;14.20;99.90;;;;;;6164042;23;20412;-89
2023/10/11 03:56:09;;;;;;;12.57;9.07;;;14.00;99.90;;;;;;6161742;23;20396;-90
2023/10/11 04:02:21;;;;;;;10.60;7.40;;;14.00;99.90;;;;;;6166155;23;20455;-91
2023/10/11 04:04:54;;;;;;;11.20;8.00;;;;;;;;;;6176553;23;20447;-90
2023/10/11 04:07:46;;;;;;;9.63;7.53;;;14.10;99.90;;;;;;6166662;23;20411;-91
2023/10/11 04:10:42;;;;;;;9.63;8.00;;;14.10;99.90;;;;;;6170071;23;20407;-90
2023/10/11 04:13:37;;;;;;;12.47;7.97;;;14.10;99.90;;;;;;6185891;23;20396;-89
2023/10/11 04:16:45;;;;;;;;;;;;;;;;;;;;;
2023/10/11 04:19:32;;;;;;;13.53;8.33;;;14.10;99.90;;;;;;6185583;23;20392;-87
2023/10/11 04:22:23;;;;;;;9.83;8.77;;;14.10;99.90;;;;;;6184964;23;20411;-88
2023/10/11 04:25:10;;;;;;;14.00;8.43;;;14.10;99.90;;;;;;6176408;23;20419;-90
2023/10/11 04:37:43;;;;;;;11.57;8.30;;;14.20;99.90;;;;;;6042842;23;20443;-91
2023/10/11 04:40:55;;;;;;;12.53;8.77;;;14.20;99.90;;;;;;6184894;23;20438;-90
2023/10/11 05:00:31;;;;;;;9.53;6.90;;;14.30;99.90;;;;;;5853138;24;20560;-91
2023/10/11 05:03:22;;;;;;;;;;;;;;;;;;;;;
2023/10/11 05:06:12;;;;;;;8.97;7.60;;;;;;;;;;6121387;23;20453;-90
2023/10/11 05:09:14;;;;;;;12.77;7.40;;;14.40;99.90;;;;;;6164991;23;20404;-91
2023/10/11 05:12:07;;;;;;;11.87;7.90;;;;;;;;;;6166990;23;20427;-90
2023/10/11 05:17:50;;;;;;;8.20;6.90;;;14.30;99.90;;;;;;6092927;23;20371;-87
2023/10/11 05:23:05;;;;;;;14.70;7.60;;;14.30;99.90;;;;;;6134355;23;20487;-87
2023/10/11 05:25:40;;;;;;;8.80;7.47;;;14.30;99.90;;;;;;6169128;23;20484;-87
2023/10/11 05:31:06;;;;;;;10.87;7.73;;;14.30;99.90;;;;;;6167556;23;20416;-87
2023/10/11 05:33:44;;;;;;;9.97;8.17;;;14.30;99.90;;;;;;6166544;23;20875;-87
2023/10/11 05:36:17;;;;;;;12.53;7.47;;;14.30;99.90;;;;;;6182529;23;20464;-85
2023/10/11 05:52:29;;;;;;;14.83;8.50;;;14.40;99.90;;;;;;6155254;23;20384;-87
2023/10/11 05:54:56;;;;;;;13.00;7.87;;;14.40;99.90;;;;;;6154973;23;20421;-88
2023/10/11 05:57:27;;;;;;;12.63;7.47;;;14.10;99.90;;;;;;6150711;23;20404;-89
2023/10/11 05:59:54;;;;;;;9.90;7.47;;;14.30;99.90;;;;;;6144321;23;20456;-90
2023/10/11 06:43:33;;;;;;;;;;;;;;;;;;;;;
2023/10/11 06:46:53;;;;;;;;;;;;;;;;;;;;;
2023/10/11 07:40:21;;;;;;;;;;;;;;;;;;;;;
2023/10/11 07:53:43;;;;;;;8.50;5.67;;;17.00;1.00;;;;;;6104975;23;20414;-89
2023/10/11 07:56:40;;;;;;;10.90;6.90;;;17.10;99.90;;;;;;6092529;23;20420;-88
2023/10/11 08:19:43;;;;;;;12.00;6.70;;;17.50;1.00;;;;;;5986520;23;20908;-89
2023/10/11 08:33:30;;;;;;;11.63;5.13;;;17.70;1.00;;;;;;5829559;24;20402;-87
2023/10/11 08:57:31;;;;;;;9.00;7.03;;;18.40;99.90;;;;;;5889039;24;20402;-88
2023/10/11 09:00:59;;;;;;;5.00;4.50;;;18.60;1.00;;;;;;5808717;24;20476;-90
2023/10/11 09:23:46;;;;;;;13.37;5.97;;;19.30;99.90;;;;;;5941989;24;20396;-89
2023/10/11 09:27:12;;;;;;;6.53;5.00;;;19.50;99.90;;;;;;5939217;24;20422;-89
2023/10/11 09:30:44;;;;;;;4.87;3.90;;;19.50;1.00;;;;;;6002277;23;20400;-89
2023/10/11 09:33:57;;;;;;;6.83;4.90;;;19.50;99.90;;;;;;6002344;23;20413;-87
2023/10/11 09:40:25;;;;;;;7.30;5.60;;;19.70;99.90;;;;;;5996392;23;20435;-90
2023/10/11 09:50:57;;;;;;;;;;;;;;;;;;;;;
2023/10/11 10:11:02;;;;;;;12.03;6.10;;;19.50;99.90;;;;;;5927899;23;20415;-87
2023/10/11 10:37:53;;;;;;;15.43;10.17;;;20.10;1.00;;;;;;5923503;24;20413;-90
2023/10/11 10:44:39;;;;;;;11.53;7.37;;;20.10;99.90;;;;;;5955112;23;20996;-89
2023/10/11 11:05:41;;;;;;;9.80;6.93;;;20.50;1.00;;;;;;5934000;24;20392;-90
2023/10/11 11:16:09;;;;;;;;;;;;;;;;;;;;;
2023/10/11 13:56:47;;;;;;;;;;;;;;;;;;;;;
2023/10/11 14:03:55;;;;;;;7.90;6.67;;;21.40;34.00;;;;;;5958537;23;20390;-85
2023/10/11 14:30:16;;;;;;;8.57;4.50;;;21.40;30.20;;;;;;5772762;24;20487;-86
2023/10/11 16:25:57;;;;;;;7.60;6.83;;;19.80;1.00;;;;;;6202787;23;20438;-90
2023/10/11 16:38:55;;;;;;;6.80;6.17;;;19.40;1.00;;;;;;6079787;23;20426;-90
2023/10/11 16:41:50;;;;;;;8.10;4.70;;;19.60;1.00;;;;;;6082357;23;20421;-91
2023/10/11 16:44:28;;;;;;;14.20;11.30;;;19.50;1.00;;;;;;6115217;23;20412;-90
2023/10/11 16:51:06;;;;;;;11.40;7.83;;;19.50;99.90;;;;;;6107660;23;20379;-87
2023/10/11 17:06:35;;;;;;;9.07;7.80;;;;;;;;;;6064086;23;20414;-91
2023/10/11 17:09:38;;;;;;;13.43;8.13;;;19.30;99.90;;;;;;6159296;23;20755;-91
2023/10/11 17:15:09;;;;;;;12.17;10.90;;;19.20;1.00;;;;;;6183118;23;20503;-90
2023/10/11 17:18:00;;;;;;;11.23;8.60;;;19.20;16.80;;;;;;6180805;23;20420;-89
2023/10/11 17:20:45;;;;;;;9.57;6.63;;;19.20;99.90;;;;;;6175733;23;20404;-90
2023/10/11 17:23:21;;;;;;;14.20;9.40;;;19.20;1.00;;;;;;6168394;23;20468;-89
2023/10/11 17:25:52;;;;;;;12.30;7.53;;;19.00;99.90;;;;;;6168777;23;20492;-90
2023/10/11 17:32:33;;;;;;;9.00;6.80;;;19.10;1.00;;;;;;5939100;24;20400;-90
2023/10/11 17:39:25;;;;;;;9.77;8.10;;;18.80;99.90;;;;;;5937348;24;20422;-90
2023/10/11 17:45:06;;;;;;;7.17;6.43;;;19.10;99.90;;;;;;6158264;23;20894;-90
2023/10/11 17:48:40;;;;;;;;;;;;;;;;;;;;;
2023/10/11 18:19:53;;;;;;;14.33;9.47;;;18.80;99.90;;;;;;5939208;24;20458;-91
2023/10/11 18:30:20;;;;;;;18.07;10.90;;;18.70;99.90;;;;;;6079317;23;20424;-92
2023/10/11 18:33:21;;;;;;;;;;;;;;;;;;;;;
2023/10/11 18:36:54;;;;;;;;;;;;;;;;;;;;;
2023/10/11 18:43:03;;;;;;;12.03;8.60;;;18.60;1.00;;;;;;6165468;23;20412;-91
2023/10/11 18:45:32;;;;;;;11.80;8.87;;;;;;;;;;6178140;23;20396;-91
2023/10/11 18:48:13;;;;;;;11.47;7.97;;;;;;;;;;6171904;23;20415;-92
2023/10/11 18:57:25;;;;;;;10.70;7.03;;;18.50;99.90;;;;;;6181046;23;20416;-91
2023/10/11 19:00:49;;;;;;;12.63;8.00;;;18.40;99.90;;;;;;6184066;23;20381;-92
2023/10/11 19:06:55;;;;;;;11.40;7.80;;;18.60;1.00;;;;;;6086187;23;20429;-91
2023/10/11 19:09:50;;;;;;;10.80;7.97;;;18.40;99.90;;;;;;6165271;23;20416;-91
2023/10/11 19:12:22;;;;;;;11.13;7.27;;;18.40;1.00;;;;;;6170960;23;20469;-92
2023/10/11 19:15:05;;;;;;;9.17;6.90;;;18.50;1.00;;;;;;6167795;23;20757;-91
2023/10/11 19:21:04;;;;;;;17.17;7.73;;;18.50;1.00;;;;;;6167019;23;20388;-92
2023/10/11 19:23:48;;;;;;;13.80;9.97;;;18.50;99.90;;;;;;6156221;23;20444;-92
2023/10/11 19:26:35;;;;;;;11.80;8.30;;;18.50;99.90;;;;;;6179900;23;20424;-91
2023/10/11 19:29:08;;;;;;;11.37;8.03;;;18.50;99.90;;;;;;6183768;23;20431;-90
2023/10/11 19:31:47;;;;;;;11.60;9.13;;;18.50;99.90;;;;;;6183912;23;20424;-91
2023/10/11 19:34:21;;;;;;;15.57;7.33;;;18.40;1.00;;;;;;6183774;23;20425;-91
2023/10/11 19:36:58;;;;;;;13.87;8.37;;;18.40;99.90;;;;;;6177084;23;20478;-92
2023/10/11 19:39:27;;;;;;;10.87;7.87;;;18.40;1.00;;;;;;6167833;23;20731;-92
2023/10/11 19:42:09;;;;;;;12.93;8.00;;;18.20;99.90;;;;;;6171186;23;20396;-92
2023/10/11 19:44:54;;;;;;;14.00;7.73;;;18.40;1.00;;;;;;6170692;23;20432;-91
2023/10/11 19:47:36;;;;;;;10.33;7.70;;;18.30;99.90;;;;;;6168900;23;20413;-92
2023/10/11 19:50:08;;;;;;;11.27;7.60;;;18.30;1.00;;;;;;6169613;23;20441;-92
2023/10/11 19:52:36;;;;;;;13.97;10.87;;;;;;;;;;6169298;23;20441;-92
2023/10/11 19:55:10;;;;;;;13.80;11.57;;;18.10;1.00;;;;;;6167833;23;20443;-92
2023/10/11 19:57:39;;;;;;;14.77;10.70;;;18.30;99.90;;;;;;6171505;23;20369;-90
2023/10/11 20:00:37;;;;;;;;;;;;;;;;;;;;;
2023/10/11 20:03:12;;;;;;;12.20;7.93;;;;;;;;;;6175677;23;20413;-91
2023/10/11 20:08:30;;;;;;;10.77;7.30;;;;;;;;;;6170597;23;20400;-92
2023/10/11 20:16:46;;;;;;;8.30;6.13;;;;;;;;;;6161622;23;20412;-93
2023/10/11 20:19:44;;;;;;;10.60;6.80;;;18.20;99.90;;;;;;6174346;23;20438;-92
2023/10/11 20:28:31;;;;;;;10.57;7.30;;;18.20;99.90;;;;;;6174172;23;20404;-93
2023/10/11 20:31:50;;;;;;;9.70;6.70;;;18.10;1.00;;;;;;6203518;23;20415;-93
2023/10/11 20:34:22;;;;;;;8.70;7.10;;;18.10;99.90;;;;;;6211918;23;20442;-92
2023/10/11 20:36:52;;;;;;;11.43;7.20;;;;;;;;;;6207310;23;20408;-89
2023/10/11 20:39:22;;;;;;;10.83;8.63;;;;;;;;;;6195999;23;20393;-89
2023/10/11 20:41:49;;;;;;;11.90;9.70;;;;;;;;;;6201204;23;20441;-88
2023/10/11 20:44:26;;;;;;;12.77;8.07;;;17.80;1.00;;;;;;6198487;23;20490;-87
2023/10/11 20:46:52;;;;;;;10.33;7.87;;;18.10;1.00;;;;;;6199183;23;20800;-89
2023/10/11 20:49:20;;;;;;;8.73;7.73;;;18.10;1.00;;;;;;6197951;23;20407;-87
2023/10/11 20:51:57;;;;;;;11.20;6.97;;;18.10;1.00;;;;;;6200762;23;20409;-89
2023/10/11 20:54:24;;;;;;;11.30;6.67;;;;;;;;;;6201243;23;20468;-88
2023/10/11 20:57:01;;;;;;;12.50;6.50;;;;;;;;;;6200477;23;20432;-91
2023/10/11 20:59:55;;;;;;;8.53;7.00;;;18.10;1.00;;;;;;6201363;23;20402;-93
2023/10/11 21:03:10;;;;;;;10.73;7.57;;;18.10;1.00;;;;;;6202583;23;20417;-91
2023/10/11 21:09:30;;;;;;;11.87;7.10;;;18.10;99.90;;;;;;6199698;23;20432;-90
2023/10/11 21:40:29;;;;;;;11.53;6.10;;;18.50;99.90;;;;;;6194467;23;20445;-88
2023/10/11 21:43:16;;;;;;;12.47;6.47;;;18.40;1.00;;;;;;6213316;23;20387;-89
2023/10/11 21:49:33;;;;;;;7.37;5.43;;;18.50;1.00;;;;;;6144638;23;20401;-87
2023/10/11 21:58:37;;;;;;;11.57;7.30;;;18.50;99.90;;;;;;6071171;23;20406;-87
2023/10/11 22:01:24;;;;;;;7.17;5.50;;;18.50;39.40;;;;;;6195308;23;20417;-88
2023/10/11 22:07:35;;;;;;;6.17;4.80;;;18.50;1.00;;;;;;6172244;23;20804;-87
2023/10/11 22:10:09;;;;;;;8.47;5.33;;;;;;;;;;6201285;23;20454;-87
2023/10/11 22:12:56;;;;;;;8.80;5.27;;;18.50;99.90;;;;;;6199061;23;20415;-88
2023/10/11 22:15:27;;;;;;;8.90;5.30;;;18.50;1.00;;;;;;6198646;23;20435;-87
2023/10/11 22:18:05;;;;;;;12.90;6.80;;;18.50;1.00;;;;;;6207225;23;20399;-88
2023/10/11 22:20:34;;;;;;;10.53;6.07;;;;;;;;;;6214372;23;20402;-89
2023/10/11 22:23:05;;;;;;;8.40;5.57;;;;;;;;;;6214384;23;20426;-87
2023/10/11 22:25:33;;;;;;;10.33;5.93;;;;;;;;;;6214680;23;20403;-87
2023/10/11 22:28:00;;;;;;;11.33;6.47;;;;;;;;;;6211772;23;20392;-88
2023/10/11 22:30:29;;;;;;;10.73;5.73;;;19.30;99.90;;;;;;6200474;23;20418;-87
2023/10/11 22:32:57;;;;;;;6.33;5.03;;;18.80;1.00;;;;;;6198424;23;20445;-88
2023/10/11 22:35:26;;;;;;;10.63;5.60;;;;;;;;;;6197240;23;20533;-88
2023/10/11 22:37:55;;;;;;;14.57;6.57;;;;;;;;;;6193997;23;20403;-88
2023/10/11 22:40:28;;;;;;;11.03;5.40;;;;;;;;;;6194209;23;20477;-88
2023/10/11 22:42:58;;;;;;;10.13;6.53;;;18.50;36.40;;;;;;6191543;23;20418;-88
2023/10/11 22:45:30;;;;;;;10.87;5.97;;;18.50;47.90;;;;;;6190727;23;20423;-86
2023/10/11 22:48:01;;;;;;;11.20;6.73;;;;;;;;;;6191136;23;20412;-87
2023/10/11 22:50:30;;;;;;;14.73;6.30;;;;;;;;;;6191702;23;20846;-88
2023/10/11 22:52:57;;;;;;;7.00;5.20;;;;;;;;;;6191485;23;20410;-88
2023/10/11 22:55:31;;;;;;;13.70;6.27;;;18.50;51.40;;;;;;6191099;23;20480;-87
2023/10/11 22:58:05;;;;;;;11.13;7.00;;;;;;;;;;6199393;23;20401;-87
2023/10/11 23:12:59;;;;;;;9.87;7.07;;;18.50;99.90;;;;;;6189281;23;20459;-89
2023/10/11 23:15:49;;;;;;;8.27;7.23;;;18.80;99.90;;;;;;6203721;23;20456;-93
2023/10/11 23:18:19;;;;;;;30.83;8.93;;;;;;;;;;6189456;23;20411;-90
2023/10/11 23:48:40;;;;;;;6.63;5.27;;;18.60;45.50;;;;;;6202958;23;20473;-91
